createdAt,value
2023-09-19T05:30:40.720Z,14.94
2023-09-19T05:40:43.898Z,15.41
2023-09-19T05:50:49.777Z,15.71
2023-09-19T06:00:53.296Z,15.77
2023-09-19T06:10:57.372Z,15.87
2023-09-19T06:21:00.538Z,15.91
2023-09-19T06:31:10.790Z,16.00
2023-09-19T06:41:14.457Z,16.06
2023-09-19T06:51:18.652Z,16.04
2023-09-19T07:01:21.475Z,16.15
2023-09-19T07:11:25.612Z,16.31
2023-09-19T07:21:28.274Z,16.37
2023-09-19T07:31:33.102Z,16.60
2023-09-19T07:41:36.490Z,16.93
2023-09-19T07:51:41.162Z,17.08
2023-09-19T08:01:45.525Z,17.32
2023-09-19T08:11:51.366Z,17.58
2023-09-19T08:21:54.052Z,18.06
2023-09-19T08:31:58.700Z,17.87
2023-09-19T08:42:01.938Z,18.08
2023-09-19T08:52:12.322Z,18.05
2023-09-19T09:02:18.062Z,18.38
2023-09-19T09:12:22.517Z,18.66
2023-09-19T09:22:25.976Z,18.48
2023-09-19T09:32:34.572Z,18.35
2023-09-19T09:42:40.304Z,19.07
2023-09-19T09:52:50.433Z,19.11
2023-09-19T10:02:53.323Z,19.39
2023-09-19T10:13:03.990Z,19.54
2023-09-19T10:23:11.739Z,19.86
2023-09-19T10:33:17.538Z,19.61
2023-09-19T10:43:22.010Z,19.52
2023-09-19T10:53:26.215Z,20.10
2023-09-19T11:03:32.182Z,20.29
2023-09-19T11:13:38.275Z,20.72
2023-09-19T11:23:41.006Z,25.71
2023-09-19T11:33:47.762Z,24.18
2023-09-19T11:43:54.717Z,23.96
2023-09-19T11:54:01.436Z,25.22
2023-09-19T12:04:06.387Z,22.63
2023-09-19T12:14:10.626Z,27.75
2023-09-19T12:24:15.331Z,22.64
2023-09-19T12:34:21.964Z,21.31
2023-09-19T12:44:25.893Z,20.79
2023-09-19T12:54:41.158Z,20.35
2023-09-19T13:04:54.498Z,20.06
2023-09-19T13:15:14.514Z,19.95
2023-09-19T13:25:19.544Z,20.10
2023-09-19T13:35:24.169Z,20.07
2023-09-19T13:45:31.559Z,20.05
2023-09-19T13:55:35.706Z,20.06
2023-09-19T14:05:38.769Z,20.11
2023-09-19T14:15:43.655Z,20.05
2023-09-19T14:25:46.427Z,20.07
2023-09-19T14:35:50.909Z,20.00
2023-09-19T14:45:53.666Z,19.83
2023-09-19T14:55:57.841Z,20.27
2023-09-19T15:06:05.697Z,20.24
2023-09-19T15:16:11.073Z,19.92
2023-09-19T15:26:18.346Z,20.32
2023-09-19T15:36:22.515Z,20.06
2023-09-19T15:46:27.794Z,20.15
2023-09-19T15:56:31.832Z,19.97
2023-09-19T16:06:34.568Z,19.86
2023-09-19T16:16:39.188Z,19.85
2023-09-19T16:26:42.202Z,19.86
2023-09-19T16:36:47.130Z,19.65
2023-09-19T16:46:49.862Z,19.76
2023-09-19T16:56:53.879Z,19.76
2023-09-19T17:06:56.602Z,19.70
2023-09-19T17:17:00.713Z,19.76
2023-09-19T17:27:03.395Z,19.46
2023-09-19T17:37:09.274Z,19.17
2023-09-19T17:47:12.313Z,18.74
2023-09-19T17:57:16.883Z,18.70
2023-09-19T18:07:19.607Z,18.68
2023-09-19T18:17:23.668Z,18.80
2023-09-19T18:27:26.353Z,18.87
2023-09-19T18:37:30.457Z,18.96
2023-09-19T18:47:33.182Z,18.96
2023-09-19T18:57:37.631Z,18.72
2023-09-19T19:07:40.494Z,17.89
2023-09-19T19:17:45.003Z,17.39
2023-09-19T19:27:48.510Z,17.10
2023-09-19T19:37:52.599Z,17.16
2023-09-19T19:47:55.403Z,17.15
2023-09-19T19:58:00.678Z,17.19
2023-09-19T20:08:04.827Z,17.24
2023-09-19T20:18:12.705Z,17.09
2023-09-19T20:28:16.024Z,17.11
2023-09-19T20:38:20.205Z,17.29
2023-09-19T20:48:23.109Z,17.39
2023-09-19T20:58:28.628Z,17.50
2023-09-19T21:08:32.986Z,17.36
2023-09-19T21:18:37.649Z,17.33
2023-09-19T21:28:41.093Z,17.50
2023-09-19T21:38:45.476Z,17.64
2023-09-19T21:48:49.556Z,17.91
2023-09-19T21:58:55.034Z,17.93
2023-09-19T22:08:57.756Z,17.98
2023-09-19T22:19:01.768Z,18.02
2023-09-19T22:29:04.593Z,18.04
2023-09-19T22:39:14.102Z,18.17
2023-09-19T22:49:18.902Z,18.32
2023-09-19T22:59:23.895Z,18.35
2023-09-19T23:09:27.619Z,18.42
2023-09-19T23:19:32.532Z,18.50
2023-09-19T23:29:39.530Z,18.41
2023-09-19T23:39:43.754Z,18.54
2023-09-19T23:49:48.668Z,18.48
2023-09-19T23:59:52.728Z,18.52
